createdAt,value
2018-09-25T00:00:54.047Z,6.89
2018-09-25T00:01:54.034Z,6.81
2018-09-25T00:02:54.274Z,6.88
2018-09-25T00:03:54.014Z,6.81
2018-09-25T00:04:54.262Z,6.77
2018-09-25T00:05:54.242Z,6.81
2018-09-25T00:06:53.976Z,6.73
2018-09-25T00:07:54.215Z,6.71
2018-09-25T00:08:54.204Z,6.67
2018-09-25T00:09:54.199Z,6.7
2018-09-25T00:10:54.180Z,6.73
2018-09-25T00:11:54.171Z,6.7
2018-09-25T00:12:54.164Z,6.7
2018-09-25T00:13:54.147Z,6.67
2018-09-25T00:14:54.138Z,6.73
2018-09-25T00:15:54.123Z,6.66
2018-09-25T00:16:54.111Z,6.59
2018-09-25T00:17:54.099Z,6.69
2018-09-25T00:18:53.836Z,6.66
2018-09-25T00:19:54.095Z,6.66
2018-09-25T00:20:54.071Z,6.67
2018-09-25T00:21:54.052Z,6.64
2018-09-25T00:22:54.040Z,6.61
2018-09-25T00:23:54.039Z,6.55
2018-09-25T00:24:54.016Z,6.54
2018-09-25T00:25:54.006Z,6.52
2018-09-25T00:26:53.996Z,6.52
2018-09-25T00:27:53.978Z,6.54
2018-09-25T00:28:53.718Z,6.52
2018-09-25T00:29:53.961Z,6.49
2018-09-25T00:30:53.697Z,6.55
2018-09-25T00:31:53.933Z,6.52
2018-09-25T00:32:53.673Z,6.54
2018-09-25T00:33:53.658Z,6.52
2018-09-25T00:34:53.899Z,6.48
2018-09-25T00:35:53.892Z,6.44
2018-09-25T00:36:53.878Z,6.48
2018-09-25T00:37:53.862Z,6.51
2018-09-25T00:38:53.853Z,6.51
2018-09-25T00:39:53.840Z,6.4
2018-09-25T00:40:53.830Z,6.51
2018-09-25T00:41:53.816Z,6.41
2018-09-25T00:42:53.805Z,6.38
2018-09-25T00:43:53.794Z,6.43
2018-09-25T00:44:53.781Z,6.36
2018-09-25T00:45:53.767Z,6.36
2018-09-25T00:46:53.831Z,6.28
2018-09-25T00:47:53.743Z,6.37
2018-09-25T00:48:53.228Z,6.41
2018-09-25T00:49:53.725Z,6.38
2018-09-25T00:50:53.706Z,6.33
2018-09-25T00:51:53.703Z,6.37
2018-09-25T00:52:53.684Z,6.34
2018-09-25T00:53:53.669Z,6.3
2018-09-25T00:54:53.661Z,6.28
2018-09-25T00:55:53.646Z,6.28
2018-09-25T00:56:53.663Z,6.3
2018-09-25T00:57:53.627Z,6.33
2018-09-25T00:58:53.611Z,6.33
2018-09-25T00:59:53.599Z,6.28
2018-09-25T01:00:53.588Z,6.27
2018-09-25T01:01:53.323Z,6.27
2018-09-25T01:02:53.311Z,6.22
2018-09-25T01:03:53.555Z,6.28
2018-09-25T01:04:53.541Z,6.22
2018-09-25T01:05:53.532Z,6.22
2018-09-25T01:06:53.516Z,6.18
2018-09-25T01:07:53.254Z,6.25
2018-09-25T01:08:53.492Z,6.21
2018-09-25T01:09:53.478Z,6.28
2018-09-25T01:10:53.468Z,6.21
2018-09-25T01:11:53.462Z,6.22
2018-09-25T01:12:53.441Z,6.25
2018-09-25T01:13:53.431Z,6.15
2018-09-25T01:14:53.417Z,6.14
2018-09-25T01:15:53.154Z,6.14
2018-09-25T01:16:53.141Z,6.12
2018-09-25T01:17:53.385Z,6.21
2018-09-25T01:18:53.369Z,6.12
2018-09-25T01:19:53.106Z,6.14
2018-09-25T01:20:53.345Z,6.09
2018-09-25T01:21:53.584Z,6.14
2018-09-25T01:22:53.070Z,6.09
2018-09-25T01:23:53.059Z,6
2018-09-25T01:24:53.299Z,6.09
2018-09-25T01:25:53.285Z,6.08
2018-09-25T01:26:53.273Z,6.09
2018-09-25T01:27:53.262Z,6.09
2018-09-25T01:28:53.251Z,6.09
2018-09-25T01:29:53.249Z,6.06
2018-09-25T01:30:53.224Z,6.09
2018-09-25T01:31:53.216Z,6.03
2018-09-25T01:32:53.200Z,6.14
2018-09-25T01:33:53.186Z,6.06
2018-09-25T01:34:53.175Z,6.04
2018-09-25T01:35:52.912Z,6.06
2018-09-25T01:36:53.152Z,6.06
2018-09-25T01:37:53.138Z,6.06
2018-09-25T01:38:53.129Z,6.06
2018-09-25T01:39:53.114Z,6.04
2018-09-25T01:40:53.105Z,6.11
2018-09-25T01:41:53.089Z,6.03
2018-09-25T01:42:53.095Z,5.97
2018-09-25T01:43:52.825Z,6.04
2018-09-25T01:44:53.056Z,6.03
2018-09-25T01:45:52.789Z,6.04
2018-09-25T01:46:52.777Z,5.96
2018-09-25T01:47:52.767Z,5.94
2018-09-25T01:48:52.758Z,6.09
2018-09-25T01:49:52.745Z,6
2018-09-25T01:50:52.980Z,5.94
2018-09-25T01:51:52.713Z,5.96
2018-09-25T01:52:53.206Z,6.06
2018-09-25T01:53:52.954Z,6.06
2018-09-25T01:54:52.933Z,5.99
2018-09-25T01:55:52.927Z,6
2018-09-25T01:56:52.654Z,6
2018-09-25T01:57:52.897Z,5.97
2018-09-25T01:58:52.628Z,5.94
2018-09-25T01:59:52.868Z,5.97
2018-09-25T02:00:52.855Z,5.94
2018-09-25T02:01:52.844Z,5.96
2018-09-25T02:02:52.836Z,5.93
2018-09-25T02:03:52.828Z,5.94
2018-09-25T02:04:52.808Z,5.93
2018-09-25T02:05:52.717Z,5.86
2018-09-25T02:06:52.784Z,5.97
2018-09-25T02:07:52.518Z,5.94
2018-09-25T02:08:52.762Z,5.82
2018-09-25T02:09:52.242Z,5.9
2018-09-25T02:10:52.733Z,5.89
2018-09-25T02:11:52.725Z,5.89
2018-09-25T02:12:52.708Z,5.86
2018-09-25T02:13:52.695Z,5.85
2018-09-25T02:14:52.687Z,5.85
2018-09-25T02:15:52.422Z,5.82
2018-09-25T02:16:52.667Z,5.82
2018-09-25T02:17:52.646Z,5.81
2018-09-25T02:18:52.641Z,5.85
2018-09-25T02:19:52.627Z,5.9
2018-09-25T02:20:52.624Z,5.83
2018-09-25T02:21:52.597Z,5.83
2018-09-25T02:22:52.584Z,5.82
2018-09-25T02:23:52.827Z,5.76
2018-09-25T02:24:52.559Z,5.89
2018-09-25T02:25:52.551Z,5.75
2018-09-25T02:26:52.541Z,5.78
2018-09-25T02:27:52.526Z,5.72
2018-09-25T02:28:52.510Z,5.75
2018-09-25T02:29:52.502Z,5.71
2018-09-25T02:30:52.486Z,5.75
2018-09-25T02:31:52.227Z,5.72
2018-09-25T02:32:52.460Z,5.75
2018-09-25T02:33:52.451Z,5.78
2018-09-25T02:34:52.443Z,5.81
2018-09-25T02:35:52.429Z,5.83
2018-09-25T02:36:52.412Z,5.79
2018-09-25T02:37:52.149Z,5.72
2018-09-25T02:38:52.395Z,5.72
2018-09-25T02:39:52.123Z,5.74
2018-09-25T02:40:52.365Z,5.68
2018-09-25T02:41:52.349Z,5.79
2018-09-25T02:42:52.107Z,5.76
2018-09-25T02:43:52.077Z,5.68
2018-09-25T02:44:52.315Z,5.65
2018-09-25T02:45:52.302Z,5.72
2018-09-25T02:46:52.284Z,5.64
2018-09-25T02:47:52.273Z,5.74
2018-09-25T02:48:52.265Z,5.65
2018-09-25T02:49:52.254Z,5.65
2018-09-25T02:50:51.986Z,5.67
2018-09-25T02:51:52.228Z,5.63
2018-09-25T02:52:52.334Z,5.67
2018-09-25T02:53:52.198Z,5.64
2018-09-25T02:54:52.435Z,5.61
2018-09-25T02:55:51.933Z,5.63
2018-09-25T02:56:51.912Z,5.74
2018-09-25T02:57:52.156Z,5.63
2018-09-25T02:58:52.141Z,5.6
2018-09-25T02:59:52.134Z,5.61
2018-09-25T03:00:52.124Z,5.64
2018-09-25T03:01:51.855Z,5.61
2018-09-25T03:02:52.095Z,5.53
2018-09-25T03:03:52.085Z,5.54
2018-09-25T03:04:52.072Z,5.67
2018-09-25T03:05:52.064Z,5.57
2018-09-25T03:06:52.038Z,5.6
2018-09-25T03:07:52.027Z,5.61
2018-09-25T03:08:52.013Z,5.53
2018-09-25T03:09:52.001Z,5.53
2018-09-25T03:10:51.988Z,5.56
2018-09-25T03:11:51.978Z,5.56
2018-09-25T03:12:51.979Z,5.57
2018-09-25T03:13:51.950Z,5.67
2018-09-25T03:14:51.938Z,5.61
2018-09-25T03:15:51.940Z,5.68
2018-09-25T03:16:51.917Z,5.57
2018-09-25T03:17:51.898Z,5.58
2018-09-25T03:18:51.957Z,5.63
2018-09-25T03:19:51.877Z,5.57
2018-09-25T03:20:51.867Z,5.6
2018-09-25T03:21:51.599Z,5.58
2018-09-25T03:22:51.837Z,5.6
2018-09-25T03:23:52.168Z,5.63
2018-09-25T03:24:51.814Z,5.56
2018-09-25T03:25:51.801Z,5.6
2018-09-25T03:26:51.790Z,5.6
2018-09-25T03:27:51.786Z,5.56
2018-09-25T03:28:51.763Z,5.58
2018-09-25T03:29:51.749Z,5.58
2018-09-25T03:30:51.757Z,5.58
2018-09-25T03:31:51.740Z,5.56
2018-09-25T03:32:51.463Z,5.54
2018-09-25T03:33:51.445Z,5.57
2018-09-25T03:34:51.450Z,5.54
2018-09-25T03:35:51.678Z,5.48
2018-09-25T03:36:51.667Z,5.58
2018-09-25T03:37:51.659Z,5.58
2018-09-25T03:38:51.640Z,5.46
2018-09-25T03:39:51.383Z,5.49
2018-09-25T03:40:51.613Z,5.45
2018-09-25T03:41:51.345Z,5.53
2018-09-25T03:42:51.585Z,5.53
2018-09-25T03:43:51.576Z,5.53
2018-09-25T03:44:51.306Z,5.49
2018-09-25T03:45:51.296Z,5.49
2018-09-25T03:46:51.535Z,5.51
2018-09-25T03:47:51.520Z,5.45
2018-09-25T03:48:51.511Z,5.46
2018-09-25T03:49:51.495Z,5.54
2018-09-25T03:50:51.492Z,5.54
2018-09-25T03:51:51.220Z,5.42
2018-09-25T03:52:51.464Z,5.46
2018-09-25T03:53:51.444Z,5.53
2018-09-25T03:54:51.187Z,5.42
2018-09-25T03:55:51.171Z,5.51
2018-09-25T03:56:51.422Z,5.46
2018-09-25T03:57:51.393Z,5.48
2018-09-25T03:58:51.384Z,5.46
2018-09-25T03:59:51.384Z,5.45
2018-09-25T04:00:51.360Z,5.42
2018-09-25T04:01:51.343Z,5.43
2018-09-25T04:02:51.371Z,5.43
2018-09-25T04:03:51.068Z,5.45
2018-09-25T04:04:51.318Z,5.45
2018-09-25T04:05:51.295Z,5.45
2018-09-25T04:06:51.033Z,5.42
2018-09-25T04:07:51.021Z,5.46
2018-09-25T04:08:51.003Z,5.48
2018-09-25T04:09:51.248Z,5.46
2018-09-25T04:10:51.229Z,5.45
2018-09-25T04:11:51.245Z,5.46
2018-09-25T04:12:50.699Z,5.4
2018-09-25T04:13:51.188Z,5.46
2018-09-25T04:14:51.177Z,5.42
2018-09-25T04:15:51.164Z,5.46
2018-09-25T04:16:51.162Z,5.49
2018-09-25T04:17:51.155Z,5.45
2018-09-25T04:18:50.884Z,5.49
2018-09-25T04:19:51.118Z,5.48
2018-09-25T04:20:51.105Z,5.53
2018-09-25T04:21:51.094Z,5.54
2018-09-25T04:22:51.080Z,5.57
2018-09-25T04:23:51.063Z,5.53
2018-09-25T04:24:51.049Z,5.54
2018-09-25T04:25:51.035Z,5.51
2018-09-25T04:26:50.771Z,5.51
2018-09-25T04:27:51.016Z,5.43
2018-09-25T04:28:51.013Z,5.46
2018-09-25T04:29:50.986Z,5.43
2018-09-25T04:30:50.980Z,5.48
2018-09-25T04:31:50.959Z,5.43
2018-09-25T04:32:50.947Z,5.48
2018-09-25T04:33:50.685Z,5.49
2018-09-25T04:34:50.920Z,5.57
2018-09-25T04:35:50.916Z,5.51
2018-09-25T04:36:50.896Z,5.54
2018-09-25T04:37:50.633Z,5.49
2018-09-25T04:38:50.622Z,5.57
2018-09-25T04:39:50.860Z,5.45
2018-09-25T04:40:50.595Z,5.46
2018-09-25T04:41:50.841Z,5.46
2018-09-25T04:42:50.830Z,5.46
2018-09-25T04:43:50.812Z,5.56
2018-09-25T04:44:50.544Z,5.48
2018-09-25T04:45:50.531Z,5.48
2018-09-25T04:46:50.519Z,5.53
2018-09-25T04:47:50.613Z,5.51
2018-09-25T04:48:50.745Z,5.56
2018-09-25T04:49:50.736Z,5.43
2018-09-25T04:50:50.471Z,5.6
2018-09-25T04:51:50.709Z,5.58
2018-09-25T04:52:50.695Z,5.6
2018-09-25T04:53:50.689Z,5.58
2018-09-25T04:54:50.666Z,5.51
2018-09-25T04:55:50.406Z,5.58
2018-09-25T04:56:50.642Z,5.56
2018-09-25T04:57:50.632Z,5.54
2018-09-25T04:58:50.374Z,5.56
2018-09-25T04:59:50.615Z,5.57
2018-09-25T05:00:50.341Z,5.63
2018-09-25T05:01:50.582Z,5.58
2018-09-25T05:02:50.567Z,5.61
2018-09-25T05:03:50.562Z,5.53
2018-09-25T05:04:50.551Z,5.63
2018-09-25T05:05:50.277Z,5.65
2018-09-25T05:06:50.721Z,5.67
2018-09-25T05:07:50.508Z,5.56
2018-09-25T05:08:50.489Z,5.57
2018-09-25T05:09:50.477Z,5.64
2018-09-25T05:10:50.478Z,5.68
2018-09-25T05:11:50.453Z,5.67
2018-09-25T05:12:50.445Z,5.72
2018-09-25T05:13:50.426Z,5.68
2018-09-25T05:14:50.537Z,5.72
2018-09-25T05:15:50.401Z,5.75
2018-09-25T05:16:50.396Z,5.89
2018-09-25T05:17:50.380Z,5.82
2018-09-25T05:18:50.377Z,5.81
2018-09-25T05:19:50.098Z,5.82
2018-09-25T05:20:50.341Z,5.9
2018-09-25T05:21:50.327Z,5.99
2018-09-25T05:22:50.316Z,6.03
2018-09-25T05:23:50.053Z,6.06
2018-09-25T05:24:50.426Z,6.28
2018-09-25T05:25:50.282Z,6.25
2018-09-25T05:26:50.264Z,6.44
2018-09-25T05:27:50.255Z,6.51
2018-09-25T05:28:50.241Z,6.71
2018-09-25T05:29:49.980Z,6.87
2018-09-25T05:30:50.465Z,6.84
2018-09-25T05:31:50.212Z,7.12
2018-09-25T05:32:50.194Z,7.09
2018-09-25T05:33:50.188Z,7.31
2018-09-25T05:34:50.172Z,7.42
2018-09-25T05:35:50.165Z,7.57
2018-09-25T05:36:50.149Z,7.83
2018-09-25T05:37:50.136Z,7.87
2018-09-25T05:38:50.135Z,8.02
2018-09-25T05:39:49.864Z,8.22
2018-09-25T05:40:50.137Z,8.4
2018-09-25T05:41:50.095Z,8.48
2018-09-25T05:42:50.084Z,8.61
2018-09-25T05:43:50.072Z,8.84
2018-09-25T05:44:50.071Z,8.86
2018-09-25T05:45:49.807Z,9.14
2018-09-25T05:46:50.046Z,9.33
2018-09-25T05:47:50.037Z,9.46
2018-09-25T05:48:50.536Z,9.68
2018-09-25T05:49:50.065Z,9.9
2018-09-25T05:50:50.006Z,9.99
2018-09-25T05:51:49.494Z,10.22
2018-09-25T05:52:49.737Z,10.3
2018-09-25T05:53:49.994Z,10.45
2018-09-25T05:54:49.977Z,10.63
2018-09-25T05:55:49.966Z,10.85
2018-09-25T05:56:49.705Z,10.91
2018-09-25T05:57:49.951Z,11.25
2018-09-25T05:58:49.940Z,11.28
2018-09-25T05:59:49.938Z,11.51
2018-09-25T06:00:49.969Z,11.72
2018-09-25T06:01:49.921Z,11.88
2018-09-25T06:02:49.657Z,12.05
2018-09-25T06:03:49.903Z,12.17
2018-09-25T06:04:49.895Z,12.31
2018-09-25T06:05:49.889Z,12.47
2018-09-25T06:06:49.884Z,12.64
2018-09-25T06:07:49.876Z,12.68
2018-09-25T06:08:49.619Z,12.86
2018-09-25T06:09:49.916Z,13
2018-09-25T06:10:49.857Z,13.14
2018-09-25T06:11:49.853Z,13.39
2018-09-25T06:12:49.855Z,13.44
2018-09-25T06:13:49.850Z,13.57
2018-09-25T06:14:49.836Z,13.66
2018-09-25T06:15:49.765Z,13.73
2018-09-25T06:16:49.824Z,13.87
2018-09-25T06:17:49.820Z,14.07
2018-09-25T06:18:50.067Z,14.24
2018-09-25T06:19:49.811Z,14.4
2018-09-25T06:20:49.550Z,14.51
2018-09-25T06:21:49.550Z,14.57
2018-09-25T06:22:49.575Z,14.83
2018-09-25T06:23:49.788Z,14.84
2018-09-25T06:24:49.790Z,14.95
2018-09-25T06:25:49.552Z,15.07
2018-09-25T06:26:49.775Z,15.17
2018-09-25T06:27:49.519Z,15.25
2018-09-25T06:28:50.112Z,15.27
2018-09-25T06:29:49.764Z,15.41
2018-09-25T06:30:49.767Z,15.49
2018-09-25T06:31:49.758Z,15.5
2018-09-25T06:32:50.005Z,15.59
2018-09-25T06:33:49.500Z,15.72
2018-09-25T06:34:49.815Z,15.86
2018-09-25T06:35:49.240Z,16.14
2018-09-25T06:36:49.745Z,16.07
2018-09-25T06:37:49.736Z,16.12
2018-09-25T06:38:49.812Z,16.28
2018-09-25T06:39:49.734Z,16.24
2018-09-25T06:40:49.642Z,16.34
2018-09-25T06:41:49.724Z,16.34
2018-09-25T06:42:49.728Z,16.52
2018-09-25T06:43:49.718Z,16.52
2018-09-25T06:44:49.466Z,16.67
2018-09-25T06:45:49.722Z,16.73
2018-09-25T06:46:49.462Z,16.75
2018-09-25T06:47:49.709Z,16.78
2018-09-25T06:48:49.706Z,16.82
2018-09-25T06:49:49.708Z,16.86
2018-09-25T06:50:49.701Z,16.96
2018-09-25T06:51:49.697Z,17.14
2018-09-25T06:52:49.695Z,17.18
2018-09-25T06:53:49.712Z,17.16
2018-09-25T06:54:50.109Z,17.3
2018-09-25T06:55:49.439Z,17.28
2018-09-25T06:56:49.439Z,17.4
2018-09-25T06:57:49.700Z,17.41
2018-09-25T06:58:49.688Z,17.51
2018-09-25T06:59:49.686Z,17.51
2018-09-25T07:00:49.489Z,17.58
2018-09-25T07:01:49.684Z,17.64
2018-09-25T07:02:49.683Z,17.63
2018-09-25T07:03:49.691Z,17.72
2018-09-25T07:04:49.433Z,17.75
2018-09-25T07:05:49.430Z,17.87
2018-09-25T07:06:49.430Z,17.92
2018-09-25T07:07:49.681Z,17.89
2018-09-25T07:08:49.430Z,17.86
2018-09-25T07:09:50.106Z,17.81
2018-09-25T07:10:49.875Z,17.81
2018-09-25T07:11:49.686Z,17.93
2018-09-25T07:12:49.691Z,17.93
2018-09-25T07:13:49.696Z,18
2018-09-25T07:14:49.685Z,18.14
2018-09-25T07:15:49.436Z,17.86
2018-09-25T07:16:49.435Z,17.86
2018-09-25T07:17:49.674Z,17.81
2018-09-25T07:18:49.690Z,17.81
2018-09-25T07:19:49.693Z,17.84
2018-09-25T07:20:49.689Z,17.87
2018-09-25T07:21:49.698Z,17.82
2018-09-25T07:22:49.949Z,17.89
2018-09-25T07:23:49.450Z,17.92
2018-09-25T07:24:50.001Z,17.89
2018-09-25T07:25:49.707Z,17.81
2018-09-25T07:26:49.707Z,17.68
2018-09-25T07:27:49.705Z,17.62
2018-09-25T07:28:49.709Z,17.64
2018-09-25T07:29:49.454Z,17.63
2018-09-25T07:30:49.763Z,17.52
2018-09-25T07:31:49.708Z,17.41
2018-09-25T07:32:49.709Z,17.36
2018-09-25T07:33:49.714Z,17.3
2018-09-25T07:34:49.726Z,17.38
2018-09-25T07:35:49.711Z,17.31
2018-09-25T07:36:49.461Z,17.34
2018-09-25T07:37:49.720Z,17.33
2018-09-25T07:38:49.466Z,17.3
2018-09-25T07:39:50.158Z,17.08
2018-09-25T07:40:49.464Z,17.08
2018-09-25T07:41:49.466Z,17.08
2018-09-25T07:42:49.463Z,17.03
2018-09-25T07:43:49.716Z,16.94
2018-09-25T07:44:49.717Z,16.89
2018-09-25T07:45:49.722Z,16.79
2018-09-25T07:46:49.466Z,16.78
2018-09-25T07:47:49.464Z,16.7
2018-09-25T07:48:49.732Z,16.53
2018-09-25T07:49:49.716Z,16.52
2018-09-25T07:50:49.717Z,16.48
2018-09-25T07:51:49.465Z,16.23
2018-09-25T07:52:49.717Z,16.09
2018-09-25T07:53:49.466Z,16
2018-09-25T07:54:49.716Z,15.86
2018-09-25T07:55:49.917Z,15.83
2018-09-25T07:56:49.462Z,15.6
2018-09-25T07:57:49.463Z,15.47
2018-09-25T07:58:49.460Z,15.5
2018-09-25T07:59:49.719Z,15.38
2018-09-25T08:00:49.457Z,15.38
2018-09-25T08:01:49.454Z,15.21
2018-09-25T08:02:49.451Z,15.07
2018-09-25T08:03:49.451Z,14.88
2018-09-25T08:04:49.711Z,14.72
2018-09-25T08:05:49.443Z,14.55
2018-09-25T08:06:49.444Z,14.39
2018-09-25T08:07:49.685Z,14.33
2018-09-25T08:08:49.724Z,14.2
2018-09-25T08:09:49.679Z,14.03
2018-09-25T08:10:49.680Z,13.85
2018-09-25T08:11:49.676Z,13.77
2018-09-25T08:12:49.719Z,13.69
2018-09-25T08:13:49.461Z,13.66
2018-09-25T08:14:49.657Z,13.59
2018-09-25T08:15:49.401Z,13.41
2018-09-25T08:16:49.398Z,13.38
2018-09-25T08:17:49.645Z,13.28
2018-09-25T08:18:49.634Z,13.26
2018-09-25T08:19:49.634Z,13.2
2018-09-25T08:20:49.625Z,13.08
2018-09-25T08:21:49.619Z,13.04
2018-09-25T08:22:49.614Z,13.03
2018-09-25T08:23:49.623Z,13
2018-09-25T08:24:49.600Z,13.03
2018-09-25T08:25:49.602Z,12.96
2018-09-25T08:26:49.590Z,12.96
2018-09-25T08:27:49.587Z,12.86
2018-09-25T08:28:49.577Z,12.85
2018-09-25T08:29:49.944Z,12.79
2018-09-25T08:30:49.313Z,12.78
2018-09-25T08:31:49.559Z,12.86
2018-09-25T08:32:49.557Z,12.75
2018-09-25T08:33:49.546Z,12.86
2018-09-25T08:34:49.289Z,12.83
2018-09-25T08:35:49.285Z,12.82
2018-09-25T08:36:49.536Z,12.77
2018-09-25T08:37:49.267Z,12.79
2018-09-25T08:38:49.955Z,12.77
2018-09-25T08:39:49.506Z,12.75
2018-09-25T08:40:49.504Z,12.71
2018-09-25T08:41:49.249Z,12.74
2018-09-25T08:42:49.488Z,12.82
2018-09-25T08:43:49.486Z,12.78
2018-09-25T08:44:49.473Z,12.82
2018-09-25T08:45:49.768Z,12.82
2018-09-25T08:46:49.211Z,12.9
2018-09-25T08:47:49.201Z,12.89
2018-09-25T08:48:49.444Z,12.77
2018-09-25T08:49:49.442Z,12.82
2018-09-25T08:50:49.431Z,12.82
2018-09-25T08:51:48.923Z,12.86
2018-09-25T08:52:49.165Z,12.87
2018-09-25T08:53:49.411Z,12.95
2018-09-25T08:54:49.419Z,12.9
2018-09-25T08:55:49.402Z,12.95
2018-09-25T08:56:49.138Z,12.96
2018-09-25T08:57:49.130Z,12.95
2018-09-25T08:58:49.374Z,12.95
2018-09-25T08:59:49.115Z,12.93
2018-09-25T09:00:49.482Z,12.87
2018-09-25T09:01:49.361Z,12.83
2018-09-25T09:02:49.097Z,12.78
2018-09-25T09:03:49.340Z,12.74
2018-09-25T09:04:49.084Z,12.75
2018-09-25T09:05:49.326Z,12.82
2018-09-25T09:06:49.318Z,12.75
2018-09-25T09:07:49.313Z,12.71
2018-09-25T09:08:49.305Z,12.68
2018-09-25T09:09:49.303Z,12.68
2018-09-25T09:10:49.040Z,12.64
2018-09-25T09:11:49.288Z,12.56
2018-09-25T09:12:49.033Z,12.56
2018-09-25T09:13:49.021Z,12.53
2018-09-25T09:14:49.266Z,12.65
2018-09-25T09:15:49.256Z,12.67
2018-09-25T09:16:49.254Z,12.74
2018-09-25T09:17:49.241Z,12.74
2018-09-25T09:18:49.238Z,12.72
2018-09-25T09:19:49.647Z,12.87
2018-09-25T09:20:49.228Z,12.93
2018-09-25T09:21:49.218Z,12.85
2018-09-25T09:22:49.209Z,12.85
2018-09-25T09:23:49.205Z,12.83
2018-09-25T09:24:49.196Z,12.79
2018-09-25T09:25:49.190Z,12.96
2018-09-25T09:26:49.185Z,13
2018-09-25T09:27:48.926Z,12.9
2018-09-25T09:28:48.924Z,12.96
2018-09-25T09:29:49.163Z,12.96
2018-09-25T09:30:49.159Z,13.04
2018-09-25T09:31:49.203Z,13.05
2018-09-25T09:32:49.145Z,13.01
2018-09-25T09:33:49.132Z,13.01
2018-09-25T09:34:49.126Z,13.08
2018-09-25T09:35:49.123Z,13.03
2018-09-25T09:36:49.109Z,13.1
2018-09-25T09:37:49.102Z,13.14
2018-09-25T09:38:49.096Z,13.2
2018-09-25T09:39:49.355Z,13.29
2018-09-25T09:40:49.092Z,13.23
2018-09-25T09:41:49.979Z,13.26
2018-09-25T09:42:49.074Z,13.23
2018-09-25T09:43:49.061Z,13.38
2018-09-25T09:44:49.057Z,13.41
2018-09-25T09:45:48.797Z,13.51
2018-09-25T09:46:49.047Z,13.57
2018-09-25T09:47:49.036Z,13.64
2018-09-25T09:48:49.032Z,13.69
2018-09-25T09:49:49.022Z,13.84
2018-09-25T09:50:49.029Z,13.88
2018-09-25T09:51:49.010Z,14.14
2018-09-25T09:52:49.007Z,14.22
2018-09-25T09:53:49.005Z,14.35
2018-09-25T09:54:48.993Z,14.4
2018-09-25T09:55:48.993Z,14.52
2018-09-25T09:56:48.980Z,14.52
2018-09-25T09:57:48.723Z,14.73
2018-09-25T09:58:48.717Z,14.86
2018-09-25T09:59:48.960Z,14.86
2018-09-25T10:00:48.953Z,14.86
2018-09-25T10:01:48.956Z,14.77
2018-09-25T10:02:48.942Z,14.72
2018-09-25T10:03:48.939Z,14.81
2018-09-25T10:04:48.682Z,14.84
2018-09-25T10:05:48.673Z,14.86
2018-09-25T10:06:49.227Z,14.83
2018-09-25T10:07:48.914Z,14.83
2018-09-25T10:08:48.908Z,14.88
2018-09-25T10:09:48.652Z,14.86
2018-09-25T10:10:48.895Z,14.92
2018-09-25T10:11:48.638Z,15.02
2018-09-25T10:12:48.894Z,15.11
2018-09-25T10:13:48.884Z,15.19
2018-09-25T10:14:48.877Z,15.25
2018-09-25T10:15:48.867Z,15.32
2018-09-25T10:16:48.610Z,15.39
2018-09-25T10:17:48.859Z,15.34
2018-09-25T10:18:49.050Z,15.28
2018-09-25T10:19:48.849Z,15.34
2018-09-25T10:20:48.855Z,15.27
2018-09-25T10:21:48.840Z,15.2
2018-09-25T10:22:48.831Z,15.23
2018-09-25T10:23:48.573Z,15.23
2018-09-25T10:24:48.821Z,15.19
2018-09-25T10:25:48.823Z,15.19
2018-09-25T10:26:48.822Z,15.23
2018-09-25T10:27:48.805Z,15.25
2018-09-25T10:28:48.797Z,15.35
2018-09-25T10:29:48.794Z,15.44
2018-09-25T10:30:48.791Z,15.46
2018-09-25T10:31:48.807Z,15.44
2018-09-25T10:32:48.788Z,15.41
2018-09-25T10:33:48.892Z,15.46
2018-09-25T10:34:48.767Z,15.34
2018-09-25T10:35:48.767Z,15.27
2018-09-25T10:36:48.759Z,15.2
2018-09-25T10:37:48.749Z,15.19
2018-09-25T10:38:48.745Z,15.16
2018-09-25T10:39:48.740Z,15.36
2018-09-25T10:40:48.766Z,15.43
2018-09-25T10:41:48.739Z,15.44
2018-09-25T10:42:48.475Z,15.56
2018-09-25T10:43:48.720Z,15.76
2018-09-25T10:44:48.716Z,15.83
2018-09-25T10:45:48.720Z,15.92
2018-09-25T10:46:48.705Z,15.94
2018-09-25T10:47:48.696Z,15.84
2018-09-25T10:48:48.704Z,15.9
2018-09-25T10:49:48.506Z,15.86
2018-09-25T10:50:48.681Z,15.87
2018-09-25T10:51:48.679Z,15.8
2018-09-25T10:52:48.421Z,15.62
2018-09-25T10:53:48.670Z,15.6
2018-09-25T10:54:48.411Z,15.49
2018-09-25T10:55:48.971Z,15.47
2018-09-25T10:56:48.654Z,15.21
2018-09-25T10:57:48.654Z,15.11
2018-09-25T10:58:48.688Z,15.06
2018-09-25T10:59:48.637Z,15.06
2018-09-25T11:00:48.128Z,14.95
2018-09-25T11:01:48.629Z,14.94
2018-09-25T11:02:48.922Z,14.96
2018-09-25T11:03:48.616Z,14.89
2018-09-25T11:04:48.364Z,14.78
2018-09-25T11:05:48.354Z,14.68
2018-09-25T11:06:48.600Z,14.68
2018-09-25T11:07:48.599Z,14.65
2018-09-25T11:08:48.588Z,14.65
2018-09-25T11:09:48.358Z,14.65
2018-09-25T11:10:48.325Z,14.78
2018-09-25T11:11:48.570Z,14.84
2018-09-25T11:12:48.564Z,14.95
2018-09-25T11:13:48.559Z,14.96
2018-09-25T11:14:48.559Z,15.03
2018-09-25T11:15:48.556Z,14.96
2018-09-25T11:16:48.545Z,15.11
2018-09-25T11:17:48.920Z,15.16
2018-09-25T11:18:48.545Z,15.34
2018-09-25T11:19:48.275Z,15.34
2018-09-25T11:20:48.529Z,15.54
2018-09-25T11:21:48.521Z,15.67
2018-09-25T11:22:48.262Z,15.57
2018-09-25T11:23:48.504Z,15.67
2018-09-25T11:24:48.505Z,15.68
2018-09-25T11:25:48.496Z,15.75
2018-09-25T11:26:48.492Z,15.76
2018-09-25T11:27:48.495Z,15.74
2018-09-25T11:28:48.225Z,15.78
2018-09-25T11:29:48.226Z,15.8
2018-09-25T11:30:48.470Z,15.92
2018-09-25T11:31:48.459Z,16.01
2018-09-25T11:32:48.454Z,15.96
2018-09-25T11:33:48.456Z,16.04
2018-09-25T11:34:48.444Z,16.12
2018-09-25T11:35:48.439Z,16.05
2018-09-25T11:36:48.441Z,15.96
2018-09-25T11:37:48.428Z,15.9
2018-09-25T11:38:48.424Z,15.75
2018-09-25T11:39:48.423Z,15.6
2018-09-25T11:40:48.514Z,15.5
2018-09-25T11:41:48.413Z,15.44
2018-09-25T11:42:48.404Z,15.41
2018-09-25T11:43:48.397Z,15.41
2018-09-25T11:44:48.395Z,15.36
2018-09-25T11:45:48.194Z,15.44
2018-09-25T11:46:48.282Z,15.44
2018-09-25T11:47:48.375Z,15.54
2018-09-25T11:48:48.120Z,15.39
2018-09-25T11:49:48.206Z,15.5
2018-09-25T11:50:48.407Z,15.53
2018-09-25T11:51:48.104Z,15.54
2018-09-25T11:52:48.469Z,15.53
2018-09-25T11:53:48.091Z,15.56
2018-09-25T11:54:48.391Z,15.44
2018-09-25T11:55:48.330Z,15.38
2018-09-25T11:56:48.080Z,15.44
2018-09-25T11:57:48.325Z,15.32
2018-09-25T11:58:48.316Z,15.25
2018-09-25T11:59:48.059Z,15.14
2018-09-25T12:00:48.056Z,15.1
2018-09-25T12:01:48.298Z,15.09
2018-09-25T12:02:48.307Z,15.02
2018-09-25T12:03:48.293Z,15.01
2018-09-25T12:04:48.288Z,15.06
2018-09-25T12:05:48.025Z,15.07
2018-09-25T12:06:48.269Z,15.06
2018-09-25T12:07:48.264Z,15.25
2018-09-25T12:08:48.262Z,15.28
2018-09-25T12:09:48.251Z,15.47
2018-09-25T12:10:48.247Z,15.53
2018-09-25T12:11:48.249Z,15.53
2018-09-25T12:12:48.241Z,15.68
2018-09-25T12:13:48.501Z,15.72
2018-09-25T12:14:48.225Z,15.74
2018-09-25T12:15:48.218Z,15.6
2018-09-25T12:16:48.213Z,15.68
2018-09-25T12:17:48.221Z,15.56
2018-09-25T12:18:48.229Z,15.65
2018-09-25T12:19:48.263Z,15.62
2018-09-25T12:20:48.190Z,15.59
2018-09-25T12:21:47.939Z,15.57
2018-09-25T12:22:48.179Z,15.43
2018-09-25T12:23:47.933Z,15.31
2018-09-25T12:24:48.174Z,15.23
2018-09-25T12:25:47.911Z,15.16
2018-09-25T12:26:48.159Z,15.28
2018-09-25T12:27:48.155Z,15.14
2018-09-25T12:28:48.150Z,15.25
2018-09-25T12:29:48.150Z,15.16
2018-09-25T12:30:48.139Z,15.16
2018-09-25T12:31:48.131Z,15.13
2018-09-25T12:32:47.933Z,15.06
2018-09-25T12:33:48.239Z,14.94
2018-09-25T12:34:48.114Z,15.03
2018-09-25T12:35:47.856Z,15.06
2018-09-25T12:36:47.601Z,15.14
2018-09-25T12:37:48.096Z,15.21
2018-09-25T12:38:48.117Z,15.32
2018-09-25T12:39:48.089Z,15.29
2018-09-25T12:40:47.858Z,15.31
2018-09-25T12:41:48.078Z,15.41
2018-09-25T12:42:48.073Z,15.39
2018-09-25T12:43:47.811Z,15.47
2018-09-25T12:44:47.804Z,15.51
2018-09-25T12:45:48.054Z,15.6
2018-09-25T12:46:48.044Z,15.72
2018-09-25T12:47:48.036Z,15.83
2018-09-25T12:48:48.033Z,15.89
2018-09-25T12:49:48.027Z,15.92
2018-09-25T12:50:48.030Z,15.93
2018-09-25T12:51:48.016Z,16.12
2018-09-25T12:52:48.010Z,16.23
2018-09-25T12:53:47.754Z,16.21
2018-09-25T12:54:48.002Z,16.34
2018-09-25T12:55:47.744Z,16.3
2018-09-25T12:56:47.989Z,16.27
2018-09-25T12:57:47.981Z,16.24
2018-09-25T12:58:47.984Z,16.23
2018-09-25T12:59:47.973Z,16.09
2018-09-25T13:00:47.716Z,16.09
2018-09-25T13:01:47.970Z,16.11
2018-09-25T13:02:47.969Z,16.01
2018-09-25T13:03:47.979Z,16
2018-09-25T13:04:47.696Z,15.89
2018-09-25T13:05:47.959Z,15.82
2018-09-25T13:06:47.939Z,15.83